Main page
METAR-TAF:

METAR-TAF

Airports :

Edson Airport

Edson, Alberta, Canada

latitude: 53-35N, longitude: 116-28W, elevation: 921 m

Current weather observation

The report was made 48 minutes ago, at 09:00 UTC
Wind 4 kt from the West/Northwest
Temperature 14°C
Humidity 82%
Pressure 1018 hPa
Visibility: 14.5 km
Clear sky

METAR: CYET 170900Z AUTO 29004KT 9SM CLR 14/11 A3007 RMK SLP173 DENSITY ALT 3600FT

Time: 03:48 (09:48 UTC)


TAF: missing

Weather observations and forecasts of more than 4000 airports (METAR and TAF reports).

The available stations are represented by yellow and red dots on the map.

Hover mouse over dot to see the name of the station.

Then click to see weather observations and forecasts.

To change the map : click on the green buttons with a black cross to zoom in, on the green button with a dash to zoom out, or on the green arrows for adjacent maps.


METAR-TAF: